Main page
METAR-TAF:

METAR-TAF

Airports :

Almería Airport

Almería, Spain

latitude: 36-51N, longitude: 002-23W, elevation: 15 m

Current weather observation

The report was made 19 minutes ago, at 15:30 UTC
Wind 10 kt from the South/Southwest
Temperature 22°C
Humidity 60%
Pressure 1018 hPa
Visibility 10 km or more
no clouds below 1500 m and no cumulonimbus

METAR: LEAM 161530Z 20010KT CAVOK 22/14 Q1018

Time: 17:49 (15:49 UTC)

Forecast

The report was made 1 hour and 49 minutes ago, at 14:00 UTC
Forecast valid from 16 at 15 UTC to 17 at 15 UTC
Wind 8 kt from the Southwest
Visibility 10 km or more
no clouds below 1500 m and no cumulonimbus

TAF: LEAM 161400Z 1615/1715 22008KT CAVOK TX24/1712Z TN15/1705Z

Weather observations and forecasts of more than 4000 airports (METAR and TAF reports).

The available stations are represented by yellow and red dots on the map.

Hover mouse over dot to see the name of the station.

Then click to see weather observations and forecasts.

To change the map : click on the green buttons with a black cross to zoom in, on the green button with a dash to zoom out, or on the green arrows for adjacent maps.


METAR-TAF: